sensor_id;sensor_type;location;lat;lon;timestamp;pressure;altitude;pressure_sealevel;temperature;humidity
6144;BME280;3103;49.492;8.474;2024-01-25T00:02:00;101736.28;;;11.33;74.75
6144;BME280;3103;49.492;8.474;2024-01-25T00:04:28;101734.66;;;11.25;74.76
6144;BME280;3103;49.492;8.474;2024-01-25T00:06:55;101730.53;;;11.22;74.69
6144;BME280;3103;49.492;8.474;2024-01-25T00:09:23;101724.53;;;11.20;75.24
6144;BME280;3103;49.492;8.474;2024-01-25T00:11:50;101730.34;;;11.17;74.77
6144;BME280;3103;49.492;8.474;2024-01-25T00:14:17;101731.00;;;11.13;75.16
6144;BME280;3103;49.492;8.474;2024-01-25T00:16:44;101727.59;;;11.30;74.83
6144;BME280;3103;49.492;8.474;2024-01-25T00:19:11;101732.16;;;11.30;74.70
6144;BME280;3103;49.492;8.474;2024-01-25T00:21:42;101716.03;;;11.30;73.93
6144;BME280;3103;49.492;8.474;2024-01-25T00:24:13;101731.78;;;11.26;74.48
6144;BME280;3103;49.492;8.474;2024-01-25T00:26:41;101736.94;;;11.21;75.53
6144;BME280;3103;49.492;8.474;2024-01-25T00:29:08;101731.38;;;11.10;75.34
6144;BME280;3103;49.492;8.474;2024-01-25T00:31:35;101734.28;;;11.08;75.50
6144;BME280;3103;49.492;8.474;2024-01-25T00:34:03;101735.91;;;11.22;75.49
6144;BME280;3103;49.492;8.474;2024-01-25T00:36:30;101727.00;;;11.28;74.80
6144;BME280;3103;49.492;8.474;2024-01-25T00:38:58;101735.28;;;11.27;75.22
6144;BME280;3103;49.492;8.474;2024-01-25T00:41:25;101739.44;;;11.10;75.55
6144;BME280;3103;49.492;8.474;2024-01-25T00:43:52;101745.66;;;11.10;76.16
6144;BME280;3103;49.492;8.474;2024-01-25T00:46:19;101746.69;;;11.09;75.82
6144;BME280;3103;49.492;8.474;2024-01-25T00:48:47;101727.69;;;11.04;75.21
6144;BME280;3103;49.492;8.474;2024-01-25T00:51:21;101739.03;;;11.19;75.54
6144;BME280;3103;49.492;8.474;2024-01-25T00:53:49;101733.19;;;11.29;75.08
6144;BME280;3103;49.492;8.474;2024-01-25T00:56:16;101736.53;;;11.18;74.98
6144;BME280;3103;49.492;8.474;2024-01-25T00:58:43;101728.28;;;11.13;75.66
6144;BME280;3103;49.492;8.474;2024-01-25T01:01:11;101743.53;;;11.25;75.40
6144;BME280;3103;49.492;8.474;2024-01-25T01:03:38;101738.16;;;11.25;74.91
6144;BME280;3103;49.492;8.474;2024-01-25T01:06:06;101727.66;;;11.17;74.70
6144;BME280;3103;49.492;8.474;2024-01-25T01:08:33;101723.34;;;11.03;75.17
6144;BME280;3103;49.492;8.474;2024-01-25T01:11:00;101730.38;;;11.04;75.38
6144;BME280;3103;49.492;8.474;2024-01-25T01:13:27;101736.78;;;10.96;75.31
6144;BME280;3103;49.492;8.474;2024-01-25T01:15:54;101737.22;;;10.93;75.47
6144;BME280;3103;49.492;8.474;2024-01-25T01:18:21;101735.16;;;11.02;74.76
6144;BME280;3103;49.492;8.474;2024-01-25T01:20:48;101735.75;;;10.97;74.92
6144;BME280;3103;49.492;8.474;2024-01-25T01:23:15;101731.63;;;11.02;74.30
6144;BME280;3103;49.492;8.474;2024-01-25T01:25:42;101732.25;;;10.97;75.00
6144;BME280;3103;49.492;8.474;2024-01-25T01:28:09;101732.44;;;10.95;74.96
6144;BME280;3103;49.492;8.474;2024-01-25T01:30:36;101724.38;;;10.95;74.03
6144;BME280;3103;49.492;8.474;2024-01-25T01:33:03;101731.63;;;11.02;74.61
6144;BME280;3103;49.492;8.474;2024-01-25T01:35:30;101723.56;;;11.02;74.04
6144;BME280;3103;49.492;8.474;2024-01-25T01:37:57;101734.53;;;11.00;73.52
6144;BME280;3103;49.492;8.474;2024-01-25T01:40:24;101721.91;;;10.94;74.23
6144;BME280;3103;49.492;8.474;2024-01-25T01:42:51;101720.22;;;11.06;73.38
6144;BME280;3103;49.492;8.474;2024-01-25T01:45:18;101721.50;;;10.84;73.47
6144;BME280;3103;49.492;8.474;2024-01-25T01:47:45;101719.28;;;10.74;74.02
6144;BME280;3103;49.492;8.474;2024-01-25T01:50:12;101719.25;;;10.87;73.64
6144;BME280;3103;49.492;8.474;2024-01-25T01:52:39;101723.59;;;10.82;72.74
6144;BME280;3103;49.492;8.474;2024-01-25T01:55:07;101719.84;;;10.83;73.12
6144;BME280;3103;49.492;8.474;2024-01-25T01:57:36;101727.53;;;10.86;72.66
6144;BME280;3103;49.492;8.474;2024-01-25T02:00:07;101725.66;;;10.86;72.67
6144;BME280;3103;49.492;8.474;2024-01-25T02:02:38;101721.31;;;10.79;73.36
6144;BME280;3103;49.492;8.474;2024-01-25T02:05:05;101737.03;;;10.88;72.41
6144;BME280;3103;49.492;8.474;2024-01-25T02:07:32;101732.69;;;10.87;72.48
6144;BME280;3103;49.492;8.474;2024-01-25T02:09:59;101740.97;;;10.86;71.87
6144;BME280;3103;49.492;8.474;2024-01-25T02:12:27;101737.00;;;11.02;71.44
6144;BME280;3103;49.492;8.474;2024-01-25T02:14:54;101739.06;;;11.06;71.28
6144;BME280;3103;49.492;8.474;2024-01-25T02:17:21;101735.97;;;10.96;71.26
6144;BME280;3103;49.492;8.474;2024-01-25T02:19:48;101727.09;;;10.82;71.07
6144;BME280;3103;49.492;8.474;2024-01-25T02:22:19;101734.78;;;10.85;71.08
6144;BME280;3103;49.492;8.474;2024-01-25T02:24:46;101730.00;;;10.81;71.62
6144;BME280;3103;49.492;8.474;2024-01-25T02:27:14;101729.19;;;10.87;71.26
6144;BME280;3103;49.492;8.474;2024-01-25T02:29:41;101733.75;;;10.66;71.74
6144;BME280;3103;49.492;8.474;2024-01-25T02:32:08;101728.97;;;10.82;70.86
6144;BME280;3103;49.492;8.474;2024-01-25T02:34:36;101728.97;;;10.88;71.03
6144;BME280;3103;49.492;8.474;2024-01-25T02:37:03;101734.38;;;10.75;71.38
6144;BME280;3103;49.492;8.474;2024-01-25T02:39:30;101741.78;;;10.93;70.64
6144;BME280;3103;49.492;8.474;2024-01-25T02:41:58;101736.44;;;10.60;71.63
6144;BME280;3103;49.492;8.474;2024-01-25T02:44:25;101742.63;;;10.80;71.02
6144;BME280;3103;49.492;8.474;2024-01-25T02:46:52;101738.50;;;10.84;70.99
6144;BME280;3103;49.492;8.474;2024-01-25T02:49:19;101737.25;;;10.80;71.17
6144;BME280;3103;49.492;8.474;2024-01-25T02:51:46;101745.50;;;10.92;70.99
6144;BME280;3103;49.492;8.474;2024-01-25T02:54:13;101742.19;;;10.90;70.95
6144;BME280;3103;49.492;8.474;2024-01-25T02:56:40;101735.38;;;10.81;70.73
6144;BME280;3103;49.492;8.474;2024-01-25T02:59:07;101731.25;;;10.85;70.50
6144;BME280;3103;49.492;8.474;2024-01-25T03:01:39;101738.50;;;10.78;70.24
6144;BME280;3103;49.492;8.474;2024-01-25T03:04:06;101740.56;;;10.62;70.67
6144;BME280;3103;49.492;8.474;2024-01-25T03:06:33;101737.03;;;10.68;71.11
6144;BME280;3103;49.492;8.474;2024-01-25T03:09:00;101736.03;;;10.76;71.04
6144;BME280;3103;49.492;8.474;2024-01-25T03:11:27;101734.19;;;10.70;71.53
6144;BME280;3103;49.492;8.474;2024-01-25T03:13:55;101730.25;;;10.59;71.91
6144;BME280;3103;49.492;8.474;2024-01-25T03:16:22;101733.97;;;10.45;72.16
6144;BME280;3103;49.492;8.474;2024-01-25T03:18:50;101734.41;;;10.42;72.59
6144;BME280;3103;49.492;8.474;2024-01-25T03:21:17;101737.91;;;10.36;72.42
6144;BME280;3103;49.492;8.474;2024-01-25T03:23:44;101735.41;;;10.41;72.68
6144;BME280;3103;49.492;8.474;2024-01-25T03:26:11;101731.91;;;10.47;72.21
6144;BME280;3103;49.492;8.474;2024-01-25T03:28:38;101736.03;;;10.30;73.19
6144;BME280;3103;49.492;8.474;2024-01-25T03:31:07;101737.91;;;10.29;72.86
6144;BME280;3103;49.492;8.474;2024-01-25T03:33:34;101749.59;;;10.08;74.14
6144;BME280;3103;49.492;8.474;2024-01-25T03:36:02;101745.94;;;10.36;73.10
6144;BME280;3103;49.492;8.474;2024-01-25T03:38:29;101737.25;;;10.27;73.71
6144;BME280;3103;49.492;8.474;2024-01-25T03:40:56;101740.38;;;10.31;73.58
6144;BME280;3103;49.492;8.474;2024-01-25T03:43:25;101747.19;;;10.33;73.20
6144;BME280;3103;49.492;8.474;2024-01-25T03:46:01;101748.22;;;10.39;72.69
6144;BME280;3103;49.492;8.474;2024-01-25T03:48:30;101749.66;;;10.35;73.25
6144;BME280;3103;49.492;8.474;2024-01-25T03:50:57;101757.91;;;10.20;73.56
6144;BME280;3103;49.492;8.474;2024-01-25T03:53:24;101761.69;;;10.46;73.02
6144;BME280;3103;49.492;8.474;2024-01-25T03:55:51;101764.97;;;10.48;73.18
6144;BME280;3103;49.492;8.474;2024-01-25T03:58:18;101769.31;;;10.49;72.25
6144;BME280;3103;49.492;8.474;2024-01-25T04:00:46;101773.22;;;10.33;72.75
6144;BME280;3103;49.492;8.474;2024-01-25T04:03:14;101776.69;;;10.20;73.73
6144;BME280;3103;49.492;8.474;2024-01-25T04:05:41;101772.78;;;10.16;73.93
6144;BME280;3103;49.492;8.474;2024-01-25T04:08:08;101780.16;;;9.94;74.75
6144;BME280;3103;49.492;8.474;2024-01-25T04:10:34;101790.75;;;10.16;74.52
6144;BME280;3103;49.492;8.474;2024-01-25T04:13:01;101786.59;;;10.00;75.02
6144;BME280;3103;49.492;8.474;2024-01-25T04:15:31;101791.97;;;10.13;74.55
6144;BME280;3103;49.492;8.474;2024-01-25T04:17:58;101797.38;;;10.26;73.55
6144;BME280;3103;49.492;8.474;2024-01-25T04:20:25;101790.34;;;10.19;73.81
6144;BME280;3103;49.492;8.474;2024-01-25T04:22:52;101802.94;;;10.18;73.65
6144;BME280;3103;49.492;8.474;2024-01-25T04:25:20;101804.59;;;10.19;73.84
6144;BME280;3103;49.492;8.474;2024-01-25T04:27:47;101805.81;;;10.17;73.35
6144;BME280;3103;49.492;8.474;2024-01-25T04:30:14;101806.41;;;10.05;74.26
6144;BME280;3103;49.492;8.474;2024-01-25T04:32:41;101812.63;;;10.06;74.13
6144;BME280;3103;49.492;8.474;2024-01-25T04:35:08;101815.72;;;10.09;74.24
6144;BME280;3103;49.492;8.474;2024-01-25T04:37:36;101815.09;;;10.01;74.58
6144;BME280;3103;49.492;8.474;2024-01-25T04:40:03;101827.06;;;10.11;74.60
6144;BME280;3103;49.492;8.474;2024-01-25T04:42:32;101830.53;;;9.99;74.80
6144;BME280;3103;49.492;8.474;2024-01-25T04:44:59;101832.66;;;10.03;74.67
6144;BME280;3103;49.492;8.474;2024-01-25T04:47:29;101847.50;;;9.99;74.51
6144;BME280;3103;49.492;8.474;2024-01-25T04:49:56;101841.69;;;9.96;74.96
6144;BME280;3103;49.492;8.474;2024-01-25T04:52:23;101843.13;;;9.92;75.32
6144;BME280;3103;49.492;8.474;2024-01-25T04:54:50;101843.97;;;9.99;75.49
6144;BME280;3103;49.492;8.474;2024-01-25T04:57:17;101848.72;;;9.97;75.03
6144;BME280;3103;49.492;8.474;2024-01-25T04:59:45;101864.25;;;9.60;77.17
6144;BME280;3103;49.492;8.474;2024-01-25T05:02:11;101866.56;;;9.70;76.73
6144;BME280;3103;49.492;8.474;2024-01-25T05:04:38;101865.72;;;9.69;77.25
6144;BME280;3103;49.492;8.474;2024-01-25T05:07:08;101866.00;;;9.81;77.06
6144;BME280;3103;49.492;8.474;2024-01-25T05:09:35;101859.81;;;9.80;77.45
6144;BME280;3103;49.492;8.474;2024-01-25T05:12:02;101859.78;;;9.74;77.51
6144;BME280;3103;49.492;8.474;2024-01-25T05:14:29;101869.50;;;9.75;77.72
6144;BME280;3103;49.492;8.474;2024-01-25T05:16:56;101867.91;;;9.94;77.13
6144;BME280;3103;49.492;8.474;2024-01-25T05:19:23;101862.13;;;9.97;76.79
6144;BME280;3103;49.492;8.474;2024-01-25T05:21:51;101861.31;;;9.96;76.75
6144;BME280;3103;49.492;8.474;2024-01-25T05:24:18;101842.09;;;9.86;77.60
6144;BME280;3103;49.492;8.474;2024-01-25T05:26:45;101849.50;;;9.84;77.61
6144;BME280;3103;49.492;8.474;2024-01-25T05:29:12;101858.88;;;9.60;78.53
6144;BME280;3103;49.492;8.474;2024-01-25T05:31:39;101851.75;;;9.74;78.38
6144;BME280;3103;49.492;8.474;2024-01-25T05:34:05;101849.50;;;9.84;77.88
6144;BME280;3103;49.492;8.474;2024-01-25T05:36:32;101854.47;;;9.87;77.47
6144;BME280;3103;49.492;8.474;2024-01-25T05:38:59;101849.91;;;9.81;78.13
6144;BME280;3103;49.492;8.474;2024-01-25T05:41:26;101857.31;;;9.79;78.03
6144;BME280;3103;49.492;8.474;2024-01-25T05:43:53;101854.84;;;9.84;77.44
6144;BME280;3103;49.492;8.474;2024-01-25T05:46:21;101854.97;;;9.63;78.57
6144;BME280;3103;49.492;8.474;2024-01-25T05:48:48;101852.91;;;9.65;78.64
6144;BME280;3103;49.492;8.474;2024-01-25T05:51:15;101855.66;;;9.71;78.06
6144;BME280;3103;49.492;8.474;2024-01-25T05:53:42;101850.84;;;9.60;78.42
6144;BME280;3103;49.492;8.474;2024-01-25T05:56:09;101854.78;;;9.64;78.78
6144;BME280;3103;49.492;8.474;2024-01-25T05:58:36;101849.75;;;9.55;79.02
6144;BME280;3103;49.492;8.474;2024-01-25T06:01:04;101837.38;;;9.53;79.05
6144;BME280;3103;49.492;8.474;2024-01-25T06:03:32;101833.38;;;9.36;80.04
6144;BME280;3103;49.492;8.474;2024-01-25T06:05:59;101833.78;;;9.40;79.69
6144;BME280;3103;49.492;8.474;2024-01-25T06:08:27;101842.91;;;9.45;79.99
6144;BME280;3103;49.492;8.474;2024-01-25T06:10:54;101853.06;;;9.50;80.07
6144;BME280;3103;49.492;8.474;2024-01-25T06:13:21;101859.00;;;9.45;80.08
6144;BME280;3103;49.492;8.474;2024-01-25T06:15:48;101855.94;;;9.48;79.92
6144;BME280;3103;49.492;8.474;2024-01-25T06:18:16;101856.97;;;9.54;79.20
6144;BME280;3103;49.492;8.474;2024-01-25T06:20:43;101854.97;;;9.28;80.75
6144;BME280;3103;49.492;8.474;2024-01-25T06:23:10;101854.50;;;9.18;81.26
6144;BME280;3103;49.492;8.474;2024-01-25T06:25:37;101859.91;;;9.25;81.31
6144;BME280;3103;49.492;8.474;2024-01-25T06:28:06;101869.84;;;9.31;81.00
6144;BME280;3103;49.492;8.474;2024-01-25T06:30:32;101873.72;;;9.21;80.82
6144;BME280;3103;49.492;8.474;2024-01-25T06:32:59;101875.47;;;9.08;81.30
6144;BME280;3103;49.492;8.474;2024-01-25T06:35:26;101879.25;;;9.20;81.01
6144;BME280;3103;49.492;8.474;2024-01-25T06:37:53;101880.81;;;9.08;81.16
6144;BME280;3103;49.492;8.474;2024-01-25T06:40:20;101884.91;;;9.04;81.57
6144;BME280;3103;49.492;8.474;2024-01-25T06:42:47;101876.25;;;9.30;80.39
6144;BME280;3103;49.492;8.474;2024-01-25T06:45:14;101880.91;;;9.21;80.69
6144;BME280;3103;49.492;8.474;2024-01-25T06:47:41;101875.34;;;9.22;80.82
6144;BME280;3103;49.492;8.474;2024-01-25T06:50:08;101871.56;;;9.10;80.82
6144;BME280;3103;49.492;8.474;2024-01-25T06:52:36;101881.25;;;9.11;81.13
6144;BME280;3103;49.492;8.474;2024-01-25T06:55:03;101882.06;;;9.12;81.05
6144;BME280;3103;49.492;8.474;2024-01-25T06:57:30;101885.34;;;9.07;81.10
6144;BME280;3103;49.492;8.474;2024-01-25T06:59:59;101879.41;;;9.12;81.00
6144;BME280;3103;49.492;8.474;2024-01-25T07:02:27;101883.31;;;9.09;81.10
6144;BME280;3103;49.492;8.474;2024-01-25T07:04:54;101885.25;;;9.22;80.74
6144;BME280;3103;49.492;8.474;2024-01-25T07:07:22;101878.84;;;9.16;80.73
6144;BME280;3103;49.492;8.474;2024-01-25T07:09:51;101886.06;;;9.16;81.17
6144;BME280;3103;49.492;8.474;2024-01-25T07:12:18;101878.53;;;9.05;81.56
6144;BME280;3103;49.492;8.474;2024-01-25T07:14:46;101873.31;;;9.25;80.78
6144;BME280;3103;49.492;8.474;2024-01-25T07:17:13;101886.69;;;9.18;81.13
6144;BME280;3103;49.492;8.474;2024-01-25T07:19:40;101893.19;;;9.09;81.61
6144;BME280;3103;49.492;8.474;2024-01-25T07:22:07;101894.50;;;8.91;82.18
6144;BME280;3103;49.492;8.474;2024-01-25T07:24:34;101890.28;;;9.04;82.07
6144;BME280;3103;49.492;8.474;2024-01-25T07:27:01;101894.22;;;9.08;81.30
6144;BME280;3103;49.492;8.474;2024-01-25T07:29:28;101900.81;;;9.05;81.61
6144;BME280;3103;49.492;8.474;2024-01-25T07:31:55;101900.84;;;9.12;82.00
6144;BME280;3103;49.492;8.474;2024-01-25T07:34:22;101911.97;;;9.09;81.88
6144;BME280;3103;49.492;8.474;2024-01-25T07:36:49;101906.84;;;9.14;81.72
6144;BME280;3103;49.492;8.474;2024-01-25T07:39:17;101898.97;;;9.06;82.06
6144;BME280;3103;49.492;8.474;2024-01-25T07:41:44;101905.78;;;9.08;81.71
6144;BME280;3103;49.492;8.474;2024-01-25T07:44:10;101898.88;;;9.20;81.09
6144;BME280;3103;49.492;8.474;2024-01-25T07:46:39;101897.81;;;9.15;81.58
6144;BME280;3103;49.492;8.474;2024-01-25T07:49:06;101890.22;;;8.97;81.73
6144;BME280;3103;49.492;8.474;2024-01-25T07:51:34;101904.56;;;9.11;81.61
6144;BME280;3103;49.492;8.474;2024-01-25T07:54:00;101906.72;;;9.22;80.68
6144;BME280;3103;49.492;8.474;2024-01-25T07:56:27;101917.63;;;9.20;80.83
6144;BME280;3103;49.492;8.474;2024-01-25T07:58:54;101906.38;;;9.04;81.90
6144;BME280;3103;49.492;8.474;2024-01-25T08:01:21;101910.22;;;9.22;80.93
6144;BME280;3103;49.492;8.474;2024-01-25T08:03:48;101904.00;;;9.15;80.65
6144;BME280;3103;49.492;8.474;2024-01-25T08:06:15;101907.66;;;9.36;79.36
6144;BME280;3103;49.492;8.474;2024-01-25T08:08:42;101915.00;;;9.27;79.49
6144;BME280;3103;49.492;8.474;2024-01-25T08:11:11;101912.81;;;9.37;78.87
6144;BME280;3103;49.492;8.474;2024-01-25T08:13:38;101920.84;;;9.37;78.93
6144;BME280;3103;49.492;8.474;2024-01-25T08:16:09;101926.00;;;9.32;79.49
6144;BME280;3103;49.492;8.474;2024-01-25T08:18:37;101927.66;;;9.33;79.13
6144;BME280;3103;49.492;8.474;2024-01-25T08:21:06;101924.47;;;9.51;78.54
6144;BME280;3103;49.492;8.474;2024-01-25T08:23:34;101927.16;;;9.51;78.48
6144;BME280;3103;49.492;8.474;2024-01-25T08:26:01;101926.44;;;9.42;78.62
6144;BME280;3103;49.492;8.474;2024-01-25T08:28:27;101918.66;;;9.47;77.99
6144;BME280;3103;49.492;8.474;2024-01-25T08:30:54;101918.13;;;9.59;78.28
6144;BME280;3103;49.492;8.474;2024-01-25T08:33:22;101917.63;;;9.48;78.26
6144;BME280;3103;49.492;8.474;2024-01-25T08:35:51;101928.06;;;9.65;78.12
6144;BME280;3103;49.492;8.474;2024-01-25T08:38:19;101927.25;;;9.71;77.04
6144;BME280;3103;49.492;8.474;2024-01-25T08:40:45;101927.59;;;9.89;76.69
6144;BME280;3103;49.492;8.474;2024-01-25T08:43:14;101931.03;;;10.18;75.48
6144;BME280;3103;49.492;8.474;2024-01-25T08:45:59;101928.59;;;10.23;74.73
6144;BME280;3103;49.492;8.474;2024-01-25T08:48:30;101936.25;;;10.26;74.27
6144;BME280;3103;49.492;8.474;2024-01-25T08:50:57;101940.53;;;10.14;75.07
6144;BME280;3103;49.492;8.474;2024-01-25T08:53:24;101935.63;;;10.24;74.61
6144;BME280;3103;49.492;8.474;2024-01-25T08:55:59;101939.50;;;10.15;75.24
6144;BME280;3103;49.492;8.474;2024-01-25T08:58:28;101944.81;;;10.08;75.22
6144;BME280;3103;49.492;8.474;2024-01-25T09:00:55;101952.56;;;10.24;75.05
6144;BME280;3103;49.492;8.474;2024-01-25T09:03:22;101950.13;;;10.36;73.78
6144;BME280;3103;49.492;8.474;2024-01-25T09:05:49;101951.88;;;10.57;73.11
6144;BME280;3103;49.492;8.474;2024-01-25T09:08:18;101945.91;;;10.75;72.40
6144;BME280;3103;49.492;8.474;2024-01-25T09:10:45;101941.91;;;10.51;72.98
6144;BME280;3103;49.492;8.474;2024-01-25T09:13:13;101943.50;;;10.32;73.64
6144;BME280;3103;49.492;8.474;2024-01-25T09:15:41;101945.88;;;10.68;72.87
6144;BME280;3103;49.492;8.474;2024-01-25T09:18:07;101951.03;;;10.63;73.16
6144;BME280;3103;49.492;8.474;2024-01-25T09:20:35;101954.16;;;10.66;72.55
6144;BME280;3103;49.492;8.474;2024-01-25T09:23:02;101943.69;;;10.24;73.26
6144;BME280;3103;49.492;8.474;2024-01-25T09:25:29;101950.34;;;10.41;73.39
6144;BME280;3103;49.492;8.474;2024-01-25T09:27:56;101951.06;;;10.69;71.66
6144;BME280;3103;49.492;8.474;2024-01-25T09:30:24;101945.88;;;10.61;72.11
6144;BME280;3103;49.492;8.474;2024-01-25T09:32:54;101946.25;;;10.45;71.74
6144;BME280;3103;49.492;8.474;2024-01-25T09:35:20;101941.97;;;10.70;71.19
6144;BME280;3103;49.492;8.474;2024-01-25T09:37:48;101953.56;;;10.78;71.04
6144;BME280;3103;49.492;8.474;2024-01-25T09:40:19;101950.47;;;10.94;71.00
6144;BME280;3103;49.492;8.474;2024-01-25T09:42:52;101963.06;;;10.80;70.83
6144;BME280;3103;49.492;8.474;2024-01-25T09:45:21;101964.94;;;10.73;71.15
6144;BME280;3103;49.492;8.474;2024-01-25T09:47:50;101957.69;;;10.74;71.47
6144;BME280;3103;49.492;8.474;2024-01-25T09:50:18;101948.16;;;10.58;71.37
6144;BME280;3103;49.492;8.474;2024-01-25T09:52:52;101947.50;;;10.43;72.04
6144;BME280;3103;49.492;8.474;2024-01-25T09:55:24;101949.41;;;10.68;71.81
6144;BME280;3103;49.492;8.474;2024-01-25T09:57:54;101951.69;;;10.78;71.90
6144;BME280;3103;49.492;8.474;2024-01-25T10:00:24;101948.59;;;10.75;71.81
6144;BME280;3103;49.492;8.474;2024-01-25T10:02:52;101942.78;;;10.58;72.13
6144;BME280;3103;49.492;8.474;2024-01-25T10:05:19;101948.38;;;10.83;71.89
6144;BME280;3103;49.492;8.474;2024-01-25T10:07:46;101949.03;;;10.85;71.15
6144;BME280;3103;49.492;8.474;2024-01-25T10:10:16;101942.66;;;10.99;71.19
6144;BME280;3103;49.492;8.474;2024-01-25T10:12:43;101940.34;;;10.96;71.02
6144;BME280;3103;49.492;8.474;2024-01-25T10:15:11;101958.13;;;10.97;70.74
6144;BME280;3103;49.492;8.474;2024-01-25T10:17:38;101957.72;;;10.93;71.75
6144;BME280;3103;49.492;8.474;2024-01-25T10:20:14;101961.63;;;10.78;72.43
6144;BME280;3103;49.492;8.474;2024-01-25T10:22:42;101955.03;;;10.87;71.63
6144;BME280;3103;49.492;8.474;2024-01-25T10:25:12;101966.44;;;11.02;71.29
6144;BME280;3103;49.492;8.474;2024-01-25T10:27:40;101959.97;;;10.83;71.63
6144;BME280;3103;49.492;8.474;2024-01-25T10:30:07;101967.88;;;10.85;71.11
6144;BME280;3103;49.492;8.474;2024-01-25T10:32:40;101963.75;;;11.02;70.28
6144;BME280;3103;49.492;8.474;2024-01-25T10:35:08;101966.84;;;11.19;70.15
6144;BME280;3103;49.492;8.474;2024-01-25T10:37:38;101969.75;;;11.30;69.46
6144;BME280;3103;49.492;8.474;2024-01-25T10:40:09;101969.75;;;11.44;69.25
6144;BME280;3103;49.492;8.474;2024-01-25T10:42:37;101971.63;;;11.43;68.18
6144;BME280;3103;49.492;8.474;2024-01-25T10:45:04;101972.81;;;11.94;66.68
6144;BME280;3103;49.492;8.474;2024-01-25T10:47:32;101969.72;;;11.90;65.35
6144;BME280;3103;49.492;8.474;2024-01-25T10:50:02;101971.81;;;11.81;65.51
6144;BME280;3103;49.492;8.474;2024-01-25T10:52:30;101960.69;;;12.29;64.75
6144;BME280;3103;49.492;8.474;2024-01-25T10:54:58;101961.53;;;12.30;65.01
6144;BME280;3103;49.492;8.474;2024-01-25T10:57:26;101948.50;;;12.20;64.10
6144;BME280;3103;49.492;8.474;2024-01-25T11:00:01;101953.22;;;11.40;65.87
6144;BME280;3103;49.492;8.474;2024-01-25T11:02:30;101956.09;;;11.45;66.87
6144;BME280;3103;49.492;8.474;2024-01-25T11:04:58;101955.06;;;11.26;66.95
6144;BME280;3103;49.492;8.474;2024-01-25T11:07:27;101942.44;;;11.27;66.28
6144;BME280;3103;49.492;8.474;2024-01-25T11:09:54;101938.91;;;11.33;67.41
6144;BME280;3103;49.492;8.474;2024-01-25T11:12:22;101942.00;;;11.50;66.92
6144;BME280;3103;49.492;8.474;2024-01-25T11:14:55;101941.34;;;11.68;65.52
6144;BME280;3103;49.492;8.474;2024-01-25T11:17:22;101946.34;;;11.84;65.92
6144;BME280;3103;49.492;8.474;2024-01-25T11:19:50;101949.66;;;11.53;65.38
6144;BME280;3103;49.492;8.474;2024-01-25T11:22:18;101940.53;;;11.67;65.44
6144;BME280;3103;49.492;8.474;2024-01-25T11:24:46;101936.41;;;11.51;65.49
6144;BME280;3103;49.492;8.474;2024-01-25T11:27:16;101941.59;;;11.46;65.31
6144;BME280;3103;49.492;8.474;2024-01-25T11:29:43;101935.81;;;11.43;65.41
6144;BME280;3103;49.492;8.474;2024-01-25T11:32:12;101931.84;;;11.52;64.66
6144;BME280;3103;49.492;8.474;2024-01-25T11:34:38;101925.03;;;11.56;64.36
6144;BME280;3103;49.492;8.474;2024-01-25T11:37:05;101926.25;;;11.60;64.01
6144;BME280;3103;49.492;8.474;2024-01-25T11:39:32;101917.50;;;11.78;63.71
6144;BME280;3103;49.492;8.474;2024-01-25T11:41:59;101919.41;;;11.64;64.14
6144;BME280;3103;49.492;8.474;2024-01-25T11:44:26;101916.69;;;11.77;63.90
6144;BME280;3103;49.492;8.474;2024-01-25T11:46:57;101905.94;;;11.64;63.74
6144;BME280;3103;49.492;8.474;2024-01-25T11:49:24;101904.31;;;11.50;65.36
6144;BME280;3103;49.492;8.474;2024-01-25T11:51:52;101902.66;;;11.69;63.93
6144;BME280;3103;49.492;8.474;2024-01-25T11:54:19;101900.31;;;11.99;63.08
6144;BME280;3103;49.492;8.474;2024-01-25T11:56:48;101896.06;;;12.16;62.68
6144;BME280;3103;49.492;8.474;2024-01-25T11:59:15;101904.66;;;11.93;62.69
6144;BME280;3103;49.492;8.474;2024-01-25T12:01:42;101899.59;;;11.32;63.65
6144;BME280;3103;49.492;8.474;2024-01-25T12:04:09;101898.91;;;11.70;63.68
6144;BME280;3103;49.492;8.474;2024-01-25T12:06:37;101889.16;;;11.75;62.39
6144;BME280;3103;49.492;8.474;2024-01-25T12:09:10;101882.44;;;12.11;62.63
6144;BME280;3103;49.492;8.474;2024-01-25T12:11:41;101872.56;;;11.92;61.71
6144;BME280;3103;49.492;8.474;2024-01-25T12:14:09;101878.81;;;11.85;61.87
6144;BME280;3103;49.492;8.474;2024-01-25T12:16:36;101880.25;;;11.68;63.02
6144;BME280;3103;49.492;8.474;2024-01-25T12:19:05;101872.00;;;11.70;64.08
6144;BME280;3103;49.492;8.474;2024-01-25T12:21:33;101855.00;;;11.82;63.48
6144;BME280;3103;49.492;8.474;2024-01-25T12:24:01;101859.03;;;12.05;63.46
6144;BME280;3103;49.492;8.474;2024-01-25T12:26:34;101846.88;;;11.89;62.57
6144;BME280;3103;49.492;8.474;2024-01-25T12:29:01;101847.03;;;12.01;62.29
6144;BME280;3103;49.492;8.474;2024-01-25T12:31:31;101849.22;;;12.17;62.28
6144;BME280;3103;49.492;8.474;2024-01-25T12:33:59;101826.69;;;12.05;62.32
6144;BME280;3103;49.492;8.474;2024-01-25T12:36:27;101824.22;;;12.03;62.68
6144;BME280;3103;49.492;8.474;2024-01-25T12:38:55;101818.47;;;12.31;62.64
6144;BME280;3103;49.492;8.474;2024-01-25T12:41:22;101819.53;;;12.24;62.80
6144;BME280;3103;49.492;8.474;2024-01-25T12:43:49;101818.72;;;12.23;61.74
6144;BME280;3103;49.492;8.474;2024-01-25T12:46:20;101814.13;;;11.92;62.80
6144;BME280;3103;49.492;8.474;2024-01-25T12:48:54;101809.00;;;11.84;62.78
6144;BME280;3103;49.492;8.474;2024-01-25T12:51:24;101810.97;;;12.02;62.42
6144;BME280;3103;49.492;8.474;2024-01-25T12:53:52;101804.22;;;11.86;62.85
6144;BME280;3103;49.492;8.474;2024-01-25T12:56:19;101808.13;;;11.97;62.67
6144;BME280;3103;49.492;8.474;2024-01-25T12:58:46;101815.25;;;11.71;63.24
6144;BME280;3103;49.492;8.474;2024-01-25T13:01:13;101810.66;;;11.85;64.35
6144;BME280;3103;49.492;8.474;2024-01-25T13:03:42;101804.38;;;11.98;63.66
6144;BME280;3103;49.492;8.474;2024-01-25T13:06:12;101799.75;;;12.11;63.41
6144;BME280;3103;49.492;8.474;2024-01-25T13:08:39;101800.38;;;12.07;63.58
6144;BME280;3103;49.492;8.474;2024-01-25T13:11:07;101806.94;;;12.17;63.68
6144;BME280;3103;49.492;8.474;2024-01-25T13:13:34;101810.75;;;12.35;63.63
6144;BME280;3103;49.492;8.474;2024-01-25T13:16:01;101794.97;;;12.38;63.28
6144;BME280;3103;49.492;8.474;2024-01-25T13:18:28;101788.47;;;12.21;63.41